Time;durP1;ratioP1;P1;durP2;ratioP2;P2;SDS_P1;SDS_P2;PMS_P1;PMS_P2;Temp;Humidity;BMP_temperature;BMP_pressure;BME280_temperature;BME280_humidity;BME280_pressure;Samples;Min_cycle;Max_cycle;Signal;HPM_P1;HPM_P2
2022/11/12 00:00:42;;;;;;;3.25;2.25;;;;;;;6.82;81.31;94714.97;5091641;28;20106;-34
2022/11/12 00:03:08;;;;;;;4.10;3.13;;;;;;;6.76;82.12;94711.44;5091270;28;20059;-34
2022/11/12 00:05:34;;;;;;;4.45;2.88;;;;;;;6.63;82.96;94697.41;5091236;28;20028;-34
2022/11/12 00:08:00;;;;;;;3.97;3.03;;;;;;;6.66;82.93;94690.94;5073064;28;20031;-34
2022/11/12 00:10:26;;;;;;;4.95;2.85;;;;;;;6.79;82.32;94691.22;5091064;28;20028;-34
2022/11/12 00:12:51;;;;;;;4.40;2.72;;;;;;;6.93;82.65;94706.75;5091159;28;20064;-34
2022/11/12 00:15:17;;;;;;;4.38;2.78;;;;;;;6.94;82.29;94707.50;5091284;28;20081;-33
2022/11/12 00:17:42;;;;;;;13.23;4.03;;;;;;;6.89;82.51;94711.72;5091242;28;20086;-34
2022/11/12 00:20:08;;;;;;;3.50;2.60;;;;;;;6.93;81.35;94714.97;5090787;28;20458;-34
2022/11/12 00:22:34;;;;;;;4.57;3.00;;;;;;;7.03;81.16;94715.53;5091138;28;20078;-34
2022/11/12 00:24:59;;;;;;;11.63;4.47;;;;;;;6.97;81.91;94712.78;5090569;28;20048;-34
2022/11/12 00:27:25;;;;;;;13.20;4.53;;;;;;;7.07;81.97;94716.03;5090816;28;20435;-33
2022/11/12 00:29:50;;;;;;;3.47;2.78;;;;;;;7.07;80.79;94708.53;5090772;28;20028;-34
2022/11/12 00:32:16;;;;;;;5.75;2.45;;;;;;;7.00;81.39;94694.53;5090866;28;20032;-34
2022/11/12 00:34:41;;;;;;;4.63;2.60;;;;;;;7.02;82.01;94709.28;5091036;28;20059;-34
2022/11/12 00:37:07;;;;;;;3.80;3.03;;;;;;;6.89;82.14;94712.47;5090963;28;20023;-34
2022/11/12 00:39:32;;;;;;;6.03;3.40;;;;;;;6.71;83.68;94690.22;5090611;28;20521;-34
2022/11/12 00:41:58;;;;;;;4.72;3.75;;;;;;;6.75;84.58;94705.22;5072578;28;20055;-34
2022/11/12 00:44:24;;;;;;;4.57;2.88;;;;;;;6.64;85.32;94707.16;5090409;28;20140;-34
2022/11/12 00:46:49;;;;;;;7.18;3.20;;;;;;;6.70;84.80;94708.66;5090673;28;20027;-34
2022/11/12 00:49:15;;;;;;;4.20;3.05;;;;;;;6.61;85.13;94699.88;5090818;28;20032;-34
2022/11/12 00:51:41;;;;;;;5.55;3.42;;;;;;;6.56;85.90;94695.16;5090799;28;20149;-34
2022/11/12 00:54:06;;;;;;;7.15;4.57;;;;;;;6.50;85.42;94694.34;5090771;28;20031;-34
2022/11/12 00:56:32;;;;;;;5.53;3.67;;;;;;;6.33;84.10;94694.28;5090374;28;20059;-34
2022/11/12 00:58:58;;;;;;;4.63;3.17;;;;;;;6.28;83.31;94683.28;5090352;28;20115;-34
2022/11/12 01:01:24;;;;;;;4.57;3.65;;;;;;;6.29;84.21;94693.00;5090549;28;20024;-34
2022/11/12 01:03:49;;;;;;;6.35;4.82;;;;;;;6.31;84.64;94674.06;5090306;28;20019;-34
2022/11/12 01:06:18;;;;;;;4.80;3.78;;;;;;;6.27;82.78;94682.53;5090494;28;20552;-34
2022/11/12 01:08:43;;;;;;;3.75;3.33;;;;;;;6.21;80.50;94676.28;5090038;28;20103;-34
2022/11/12 01:11:12;;;;;;;5.38;3.25;;;;;;;6.31;80.14;94687.78;5090245;28;20415;-34
2022/11/12 01:13:39;;;;;;;3.95;3.17;;;;;;;6.33;80.18;94682.56;5090570;28;20035;-34
2022/11/12 01:16:09;;;;;;;3.90;3.05;;;;;;;6.35;79.71;94682.81;5090050;28;20731;-34
2022/11/12 01:18:35;;;;;;;4.60;3.00;;;;;;;6.24;79.84;94680.75;5090191;28;20116;-34
2022/11/12 01:21:02;;;;;;;3.85;2.80;;;;;;;6.31;76.18;94677.56;5090419;28;20074;-34
2022/11/12 01:23:27;;;;;;;4.40;2.90;;;;;;;6.40;76.68;94682.09;5072272;28;20423;-34
2022/11/12 01:25:53;;;;;;;4.97;3.35;;;;;;;6.43;77.49;94679.09;5090013;28;20024;-34
2022/11/12 01:28:18;;;;;;;5.25;3.97;;;;;;;6.42;76.44;94676.88;5090272;28;20509;-33
2022/11/12 01:30:44;;;;;;;5.75;2.95;;;;;;;6.40;75.26;94671.88;5090368;28;20527;-34
2022/11/12 01:33:09;;;;;;;5.53;3.20;;;;;;;6.39;74.81;94672.38;5090039;28;20028;-34
2022/11/12 01:35:34;;;;;;;4.15;3.50;;;;;;;6.37;75.86;94672.84;5090143;28;20051;-34
2022/11/12 01:38:00;;;;;;;4.28;2.90;;;;;;;6.39;78.06;94675.13;5090255;28;20028;-34
2022/11/12 01:40:25;;;;;;;4.65;3.25;;;;;;;6.30;78.34;94667.09;5089940;28;20020;-34
2022/11/12 01:42:52;;;;;;;6.75;3.20;;;;;;;6.28;78.14;94664.81;5089959;28;20031;-34
2022/11/12 01:45:17;;;;;;;3.40;2.85;;;;;;;6.24;79.79;94658.09;5089737;28;20048;-34
2022/11/12 01:47:45;;;;;;;4.22;3.00;;;;;;;6.20;79.95;94647.34;5089922;28;20036;-34
2022/11/12 01:50:22;;;;;;;4.43;2.95;;;;;;;6.25;80.04;94660.34;5089822;28;20032;-34
2022/11/12 01:52:51;;;;;;;5.38;3.15;;;;;;;6.17;80.24;94651.09;5090110;28;20028;-34
2022/11/12 01:55:20;;;;;;;6.32;4.20;;;;;;;6.10;79.68;94657.03;5090174;28;20039;-34
2022/11/12 01:58:08;;;;;;;4.07;3.13;;;;;;;6.07;79.04;94647.78;5072062;28;20523;-34
2022/11/12 02:00:34;;;;;;;5.18;3.40;;;;;;;6.09;79.06;94641.78;5089597;28;20028;-34
2022/11/12 02:03:01;;;;;;;5.03;3.70;;;;;;;6.03;79.22;94641.78;5089971;28;20054;-34
2022/11/12 02:05:28;;;;;;;6.03;3.67;;;;;;;6.06;78.88;94634.56;5089976;28;20032;-34
2022/11/12 02:07:55;;;;;;;6.28;3.08;;;;;;;5.97;78.82;94643.00;5071785;28;20515;-34
2022/11/12 02:10:21;;;;;;;7.43;3.97;;;;;;;6.00;78.99;94647.47;5089868;28;20407;-34
2022/11/12 02:15:31;;;;;;;6.82;3.80;;;;;;;5.93;80.59;94651.41;5074735;28;20039;-34
2022/11/12 02:17:56;;;;;;;3.72;2.90;;;;;;;5.92;80.62;94651.91;5071880;28;20028;-34
2022/11/12 02:20:22;;;;;;;3.67;3.17;;;;;;;5.82;80.90;94642.38;5089789;28;20466;-34
2022/11/12 02:22:47;;;;;;;4.57;3.80;;;;;;;5.88;81.47;94648.66;5075319;28;20028;-34
2022/11/12 02:25:19;;;;;;;5.35;3.65;;;;;;;5.84;81.46;94653.63;5093207;28;20461;-34
2022/11/12 02:27:45;;;;;;;5.30;2.97;;;;;;;5.80;81.85;94648.34;5075117;28;20107;-34
2022/11/12 02:30:11;;;;;;;5.32;3.95;;;;;;;5.76;82.38;94652.56;5074932;28;20024;-34
2022/11/12 02:32:36;;;;;;;4.93;3.75;;;;;;;5.66;81.91;94632.03;5092934;28;20111;-33
2022/11/12 02:35:02;;;;;;;5.57;3.95;;;;;;;5.82;81.99;94650.59;5093270;28;20024;-34
2022/11/12 02:37:28;;;;;;;8.27;4.13;;;;;;;5.82;81.34;94645.88;5093315;28;20026;-34
2022/11/12 02:39:53;;;;;;;9.98;4.78;;;;;;;5.68;81.38;94646.00;5092892;28;20541;-34
2022/11/12 02:42:19;;;;;;;10.88;5.50;;;;;;;5.70;81.32;94644.28;5092753;28;20085;-34
2022/11/12 02:44:44;;;;;;;6.82;3.85;;;;;;;5.66;81.25;94643.00;5092659;28;20047;-34
2022/11/12 02:47:09;;;;;;;4.60;3.38;;;;;;;5.60;81.61;94651.19;5092907;28;20034;-33
2022/11/12 02:49:35;;;;;;;6.90;3.85;;;;;;;5.31;82.75;94645.97;5092813;28;20020;-34
2022/11/12 02:52:00;;;;;;;10.43;5.15;;;;;;;5.39;82.76;94653.25;5092597;28;20050;-34
2022/11/12 02:54:26;;;;;;;5.35;3.90;;;;;;;5.31;82.90;94654.19;5092542;28;20107;-34
2022/11/12 02:56:51;;;;;;;4.97;3.55;;;;;;;5.24;83.28;94655.38;5092489;28;20027;-34
2022/11/12 02:59:16;;;;;;;4.68;3.67;;;;;;;5.21;83.75;94659.09;5092588;28;20035;-34
2022/11/12 03:01:42;;;;;;;4.15;3.22;;;;;;;5.32;82.50;94652.97;5092396;28;20027;-34
2022/11/12 03:04:07;;;;;;;4.88;3.60;;;;;;;5.29;81.93;94656.66;5092435;28;20024;-34
2022/11/12 03:06:33;;;;;;;6.35;4.25;;;;;;;5.12;82.53;94656.53;5092215;28;20507;-34
2022/11/12 03:08:58;;;;;;;5.63;3.70;;;;;;;4.99;82.54;94652.66;5092153;28;20036;-34
2022/11/12 03:11:24;;;;;;;6.15;4.28;;;;;;;5.00;82.72;94643.22;5092345;28;20024;-34
2022/11/12 03:13:49;;;;;;;6.00;4.07;;;;;;;4.97;83.07;94655.88;5092159;28;20036;-34
2022/11/12 03:16:15;;;;;;;7.75;4.25;;;;;;;5.00;82.91;94654.19;5092361;28;20016;-34
2022/11/12 03:18:40;;;;;;;8.98;5.63;;;;;;;4.97;82.74;94652.41;5091985;28;20032;-34
2022/11/12 03:21:06;;;;;;;10.32;4.03;;;;;;;5.07;81.87;94651.00;5092116;28;20043;-34
2022/11/12 03:23:31;;;;;;;8.18;5.30;;;;;;;4.90;81.91;94666.50;5092356;28;20561;-34
2022/11/12 03:25:57;;;;;;;6.15;4.35;;;;;;;4.80;82.80;94657.72;5091661;28;20081;-34
2022/11/12 03:28:22;;;;;;;6.82;4.35;;;;;;;4.85;83.42;94653.53;5092170;28;20035;-34
2022/11/12 03:30:48;;;;;;;7.13;5.00;;;;;;;4.87;83.23;94651.06;5071766;28;20035;-34
2022/11/12 03:33:14;;;;;;;7.15;3.80;;;;;;;4.87;83.23;94653.78;5071508;28;20054;-34
2022/11/12 03:35:40;;;;;;;7.15;4.43;;;;;;;4.86;83.87;94647.56;5071857;28;20024;-34
2022/11/12 03:38:06;;;;;;;6.63;4.50;;;;;;;4.76;83.70;94653.69;5071645;28;20016;-34
2022/11/12 03:40:32;;;;;;;5.25;4.43;;;;;;;4.82;83.99;94644.28;5071463;28;20055;-34
2022/11/12 03:42:58;;;;;;;8.90;4.63;;;;;;;4.85;84.32;94635.09;5071419;28;20080;-34
2022/11/12 03:45:25;;;;;;;5.70;4.32;;;;;;;4.70;83.92;94617.31;5071159;28;20059;-34
2022/11/12 03:47:53;;;;;;;6.10;4.55;;;;;;;4.82;83.53;94644.28;5071269;28;20036;-34
2022/11/12 03:50:21;;;;;;;6.20;4.80;;;;;;;4.72;84.08;94642.19;5071247;28;20027;-33
2022/11/12 03:52:49;;;;;;;7.23;5.03;;;;;;;4.72;84.91;94634.00;5071308;28;20028;-34
2022/11/12 03:55:15;;;;;;;6.35;4.57;;;;;;;4.79;85.20;94639.78;5071224;28;20016;-34
2022/11/12 03:57:41;;;;;;;8.35;6.22;;;;;;;4.86;85.13;94638.59;5071362;28;20024;-34
2022/11/12 04:00:08;;;;;;;7.85;5.68;;;;;;;4.89;84.39;94637.66;5075687;28;20071;-34
2022/11/12 04:02:33;;;;;;;20.45;6.90;;;;;;;4.86;84.85;94622.19;5091134;28;20063;-34
2022/11/12 04:10:31;;;;;;;9.85;5.70;;;;;;;4.92;84.00;94631.94;5062085;28;20061;-34
2022/11/12 04:15:40;;;;;;;5.85;5.05;;;;;;;4.91;84.20;94624.22;5091092;28;20092;-34
2022/11/12 04:23:34;;;;;;;8.23;5.45;;;;;;;4.66;84.33;94625.00;5091330;28;20419;-34
2022/11/12 04:30:14;;;;;;;18.60;9.18;;;;;;;4.47;84.97;94624.53;5091151;28;20030;-34
2022/11/12 04:31:29;;;;;;;19.25;9.23;;;;;;;4.49;84.63;94627.53;5090662;28;20050;-34
2022/11/12 04:34:27;;;;;;;14.15;8.63;;;;;;;4.52;84.51;94627.34;5090702;28;20492;-34
2022/11/12 04:36:41;;;;;;;11.70;8.57;;;;;;;4.40;84.52;94624.94;5090528;28;20028;-34
2022/11/12 04:39:06;;;;;;;11.85;7.40;;;;;;;4.36;84.74;94629.88;5090656;28;20031;-34
2022/11/12 04:47:00;;;;;;;8.45;6.93;;;;;;;4.38;84.48;94647.28;5090656;28;20103;-34
2022/11/12 04:49:25;;;;;;;8.95;6.13;;;;;;;4.32;85.28;94646.47;5090562;28;20024;-34
2022/11/12 04:52:06;;;;;;;6.25;4.13;;;;;;;4.12;85.51;94641.00;5090411;28;20020;-34
2022/11/12 04:54:32;;;;;;;9.38;6.90;;;;;;;4.07;86.52;94630.75;5090675;28;20036;-34
2022/11/12 04:56:59;;;;;;;10.38;6.88;;;;;;;4.01;86.03;94654.53;5090427;28;20022;-34
2022/11/12 04:59:25;;;;;;;7.50;6.10;;;;;;;3.98;85.33;94641.84;5090364;28;20563;-34
2022/11/12 05:01:51;;;;;;;9.60;7.00;;;;;;;3.98;84.76;94644.56;5090186;28;20055;-34
2022/11/12 05:04:17;;;;;;;11.55;7.38;;;;;;;3.96;84.72;94647.03;5072264;28;20024;-34
2022/11/12 05:06:51;;;;;;;13.38;7.80;;;;;;;3.97;84.73;94653.97;5090153;28;20419;-34
2022/11/12 05:09:19;;;;;;;17.95;12.05;;;;;;;3.89;85.14;94652.88;5090274;28;20568;-34
2022/11/12 05:11:45;;;;;;;28.80;11.20;;;;;;;3.77;85.13;94653.94;5090308;28;20389;-34
2022/11/12 05:14:11;;;;;;;37.53;14.02;;;;;;;3.70;85.48;94646.91;5090146;28;20024;-34
2022/11/12 05:16:38;;;;;;;37.15;13.60;;;;;;;3.63;86.40;94646.56;5090065;28;20724;-34
2022/11/12 05:19:03;;;;;;;11.55;6.75;;;;;;;3.61;86.77;94638.84;5090115;28;20072;-34
2022/11/12 05:24:13;;;;;;;13.93;6.95;;;;;;;3.64;86.79;94643.34;5074894;28;20027;-34
2022/11/12 05:26:39;;;;;;;17.48;7.10;;;;;;;3.64;86.56;94646.06;5089646;28;20020;-34
2022/11/12 05:29:05;;;;;;;18.90;7.45;;;;;;;3.59;86.78;94641.31;5090007;28;20032;-34
2022/11/12 05:31:30;;;;;;;8.10;4.95;;;;;;;3.73;86.57;94653.41;5090323;28;20077;-34
2022/11/12 05:33:56;;;;;;;12.35;5.63;;;;;;;3.71;86.93;94653.88;5090098;28;20020;-34
2022/11/12 05:36:22;;;;;;;11.25;6.07;;;;;;;3.76;87.78;94649.72;5089951;28;20024;-34
2022/11/12 05:38:48;;;;;;;8.38;5.95;;;;;;;3.76;87.54;94653.22;5090336;28;20039;-34
2022/11/12 05:41:13;;;;;;;6.93;3.63;;;;;;;3.77;88.09;94657.44;5090076;28;20076;-34
2022/11/12 05:43:39;;;;;;;9.18;4.35;;;;;;;3.83;88.48;94655.53;5089745;28;20048;-34
2022/11/12 05:46:05;;;;;;;11.40;6.50;;;;;;;3.85;88.08;94663.25;5089906;28;20032;-33
2022/11/12 05:48:31;;;;;;;9.30;6.32;;;;;;;3.95;88.25;94667.38;5089965;28;20145;-34
2022/11/12 05:50:56;;;;;;;10.68;6.75;;;;;;;4.00;88.09;94663.97;5089935;28;20063;-34
2022/11/12 05:53:22;;;;;;;9.63;6.45;;;;;;;4.03;87.39;94663.00;5090253;28;20573;-34
2022/11/12 05:55:47;;;;;;;11.25;7.03;;;;;;;4.09;87.81;94668.56;5092101;28;20020;-34
2022/11/12 05:58:13;;;;;;;15.05;7.82;;;;;;;4.16;87.92;94666.16;5093655;28;20055;-34
2022/11/12 06:00:38;;;;;;;11.48;8.30;;;;;;;4.20;88.04;94665.97;5093603;28;20492;-34
2022/11/12 06:03:04;;;;;;;27.17;12.82;;;;;;;4.16;87.29;94676.34;5093905;28;20050;-34
2022/11/12 06:05:31;;;;;;;35.97;18.45;;;;;;;4.16;87.49;94674.34;5093778;28;20020;-34
2022/11/12 06:07:56;;;;;;;13.15;6.90;;;;;;;4.25;84.09;94670.72;5093593;28;20024;-34
2022/11/12 06:10:22;;;;;;;5.78;3.58;;;;;;;4.59;80.67;94683.59;5093618;28;20086;-34
2022/11/12 06:12:47;;;;;;;6.47;3.50;;;;;;;4.96;76.17;94689.22;5093901;28;20153;-34
2022/11/12 06:15:13;;;;;;;12.63;3.58;;;;;;;5.26;74.66;94679.56;5093443;28;20028;-34
2022/11/12 06:17:38;;;;;;;5.13;4.00;;;;;;;5.42;73.32;94661.75;5093293;28;20016;-34
2022/11/12 06:20:04;;;;;;;5.20;3.20;;;;;;;5.63;72.32;94674.13;5093296;28;20024;-34
2022/11/12 06:22:30;;;;;;;6.07;3.30;;;;;;;5.82;70.99;94684.25;5093374;28;20031;-34
2022/11/12 06:24:55;;;;;;;3.63;3.28;;;;;;;5.90;71.58;94682.56;5092862;28;20020;-33
2022/11/12 06:27:22;;;;;;;3.97;3.13;;;;;;;5.93;70.49;94689.78;5093064;28;20108;-33
2022/11/12 06:29:48;;;;;;;4.40;2.85;;;;;;;5.99;71.07;94698.06;5093353;28;20104;-34
2022/11/12 06:32:13;;;;;;;5.05;3.50;;;;;;;6.04;70.36;94692.63;5093287;28;20070;-34
2022/11/12 06:34:39;;;;;;;6.35;2.72;;;;;;;6.07;70.76;94693.63;5093006;28;20024;-34
2022/11/12 06:37:04;;;;;;;5.28;3.42;;;;;;;6.15;70.08;94704.91;5093018;28;20099;-34
2022/11/12 06:39:30;;;;;;;13.38;7.78;;;;;;;6.15;70.75;94691.19;5093189;28;20028;-34
2022/11/12 06:41:55;;;;;;;10.73;5.47;;;;;;;6.34;71.20;94709.50;5093218;28;20016;-34
2022/11/12 06:44:21;;;;;;;7.20;4.28;;;;;;;6.46;71.14;94719.28;5092603;28;20428;-34
2022/11/12 06:46:46;;;;;;;7.40;6.30;;;;;;;6.57;69.64;94732.31;5092827;28;20115;-34
2022/11/12 06:49:12;;;;;;;6.38;5.78;;;;;;;6.69;69.16;94725.63;5092798;28;20019;-34
2022/11/12 06:51:38;;;;;;;3.30;2.97;;;;;;;6.96;67.87;94718.72;5093012;28;20648;-34
2022/11/12 06:54:04;;;;;;;3.97;3.55;;;;;;;7.02;67.41;94719.53;5092671;28;20469;-34
2022/11/12 06:56:30;;;;;;;4.32;3.42;;;;;;;7.07;67.10;94716.78;5092770;28;20124;-34
2022/11/12 06:58:56;;;;;;;4.45;2.85;;;;;;;7.06;67.59;94704.28;5092887;28;20535;-34
2022/11/12 07:01:22;;;;;;;4.13;3.72;;;;;;;7.07;67.56;94707.78;5092388;28;20042;-34
2022/11/12 07:03:50;;;;;;;3.50;3.15;;;;;;;7.06;68.26;94706.31;5092408;28;20027;-34
2022/11/12 07:06:19;;;;;;;6.38;3.67;;;;;;;7.14;67.99;94710.06;5091937;28;20101;-34
2022/11/12 07:08:49;;;;;;;3.10;2.70;;;;;;;7.05;65.73;94702.78;5092549;28;20035;-34
2022/11/12 07:11:18;;;;;;;2.47;2.17;;;;;;;7.12;63.99;94701.56;5092339;28;20024;-34
2022/11/12 07:13:45;;;;;;;8.90;2.40;;;;;;;7.26;64.90;94712.31;5092543;28;20419;-34
2022/11/12 07:16:17;;;;;;;2.45;1.88;;;;;;;7.36;64.61;94705.34;5092091;28;20016;-34
2022/11/12 07:18:46;;;;;;;2.22;2.00;;;;;;;7.51;64.22;94716.84;5092195;28;20188;-34
2022/11/12 07:21:14;;;;;;;2.58;1.65;;;;;;;7.55;61.11;94711.88;5092352;28;20526;-34
2022/11/12 07:23:44;;;;;;;3.25;2.10;;;;;;;7.47;60.67;94708.09;5092194;28;20024;-34
2022/11/12 07:26:20;;;;;;;2.47;2.00;;;;;;;7.52;60.83;94717.59;5091980;28;20024;-34
2022/11/12 07:28:47;;;;;;;2.25;2.05;;;;;;;7.59;60.78;94706.13;5091923;28;20019;-34
2022/11/12 07:31:15;;;;;;;5.85;3.65;;;;;;;7.76;62.16;94709.63;5091053;28;20036;-34
2022/11/12 07:33:41;;;;;;;3.85;2.45;;;;;;;7.90;59.98;94710.63;5091834;28;20028;-34
2022/11/12 07:36:09;;;;;;;3.70;2.35;;;;;;;8.05;59.89;94711.88;5091863;28;20085;-34
2022/11/12 07:38:36;;;;;;;3.22;2.60;;;;;;;8.33;61.28;94698.09;5091669;28;20028;-34
2022/11/12 07:41:04;;;;;;;2.65;2.13;;;;;;;8.74;57.96;94709.22;5091691;28;20051;-34
2022/11/12 07:43:32;;;;;;;3.10;2.33;;;;;;;9.32;57.18;94712.69;5091565;28;20024;-34
2022/11/12 07:46:04;;;;;;;2.22;1.95;;;;;;;9.78;55.13;94707.91;5091601;28;20093;-34
2022/11/12 07:48:30;;;;;;;2.58;2.10;;;;;;;10.51;53.98;94703.25;5091557;28;20028;-34
2022/11/12 07:51:04;;;;;;;4.82;2.30;;;;;;;11.20;51.55;94706.19;5091370;28;20492;-34
2022/11/12 07:53:29;;;;;;;2.35;2.00;;;;;;;11.38;51.01;94704.69;5091601;28;20028;-34
2022/11/12 07:55:56;;;;;;;2.20;2.00;;;;;;;11.22;49.70;94713.94;5091316;28;20028;-34
2022/11/12 07:58:22;;;;;;;3.60;2.17;;;;;;;11.02;51.08;94715.19;5091228;28;20031;-34
2022/11/12 08:00:49;;;;;;;3.75;2.65;;;;;;;10.46;51.94;94701.28;5091359;28;20024;-34
2022/11/12 08:03:15;;;;;;;2.30;2.10;;;;;;;9.93;53.41;94724.06;5091352;28;20051;-34
2022/11/12 08:05:40;;;;;;;2.10;1.90;;;;;;;9.62;53.55;94713.50;5091230;28;20515;-34
2022/11/12 08:08:06;;;;;;;2.47;1.88;;;;;;;9.44;54.45;94712.13;5091182;28;20024;-34
2022/11/12 08:10:31;;;;;;;3.22;1.80;;;;;;;9.29;54.69;94722.00;5091148;28;20031;-34
2022/11/12 08:12:57;;;;;;;2.08;1.83;;;;;;;9.15;55.28;94726.59;5091418;28;20621;-34
2022/11/12 08:15:23;;;;;;;3.17;2.03;;;;;;;9.08;55.01;94719.59;5091042;28;20484;-34
2022/11/12 08:17:49;;;;;;;3.13;2.00;;;;;;;9.16;54.57;94725.31;5091305;28;20107;-34
2022/11/12 08:20:14;;;;;;;2.95;2.33;;;;;;;9.24;55.38;94718.03;5090932;28;20055;-34
2022/11/12 08:22:40;;;;;;;2.85;2.25;;;;;;;9.43;55.54;94721.66;5090955;28;20085;-34
2022/11/12 08:25:07;;;;;;;3.13;2.28;;;;;;;9.51;56.04;94714.34;5090622;28;20095;-34
2022/11/12 08:27:32;;;;;;;3.25;2.88;;;;;;;9.69;57.22;94721.25;5090761;28;20612;-34
2022/11/12 08:29:58;;;;;;;3.00;2.35;;;;;;;9.85;58.60;94726.63;5090892;28;20020;-34
2022/11/12 08:32:23;;;;;;;10.10;2.90;;;;;;;9.98;58.50;94723.28;5090687;28;20073;-34
2022/11/12 08:34:49;;;;;;;4.25;2.78;;;;;;;9.97;55.90;94735.56;5090689;28;20503;-34
2022/11/12 08:37:15;;;;;;;3.45;2.90;;;;;;;10.02;55.09;94732.03;5090693;28;20081;-34
2022/11/12 08:39:40;;;;;;;3.83;2.70;;;;;;;9.75;55.71;94730.22;5090932;28;20024;-34
2022/11/12 08:42:06;;;;;;;2.65;2.25;;;;;;;9.69;57.01;94740.53;5090664;28;20046;-34
2022/11/12 08:44:31;;;;;;;3.72;3.22;;;;;;;9.44;58.55;94738.97;5090438;28;20052;-34
2022/11/12 08:46:58;;;;;;;3.63;2.42;;;;;;;8.99;58.44;94744.69;5090495;28;20043;-34
2022/11/12 08:49:24;;;;;;;4.07;2.88;;;;;;;8.93;59.61;94748.72;5090488;28;20504;-34
2022/11/12 08:51:50;;;;;;;7.15;5.07;;;;;;;8.90;59.43;94738.72;5090433;28;20085;-34
2022/11/12 08:54:16;;;;;;;4.18;3.10;;;;;;;8.79;58.96;94747.75;5090516;28;20115;-34
2022/11/12 08:56:44;;;;;;;4.97;3.15;;;;;;;8.76;60.44;94748.03;5090488;28;20102;-34
2022/11/12 08:59:10;;;;;;;13.45;7.78;;;;;;;8.85;60.78;94750.50;5090469;28;20547;-34
2022/11/12 09:01:35;;;;;;;11.13;6.47;;;;;;;8.95;62.60;94749.72;5090537;28;20110;-34
2022/11/12 09:04:01;;;;;;;4.25;2.47;;;;;;;9.05;60.94;94752.94;5090534;28;20103;-34
2022/11/12 09:06:26;;;;;;;23.63;12.00;;;;;;;9.13;61.78;94754.66;5090216;28;20412;-34
2022/11/12 09:08:52;;;;;;;5.78;4.65;;;;;;;9.36;60.20;94752.53;5090249;28;20028;-34
2022/11/12 09:11:17;;;;;;;8.63;4.63;;;;;;;9.52;60.19;94745.41;5090645;28;20032;-34
2022/11/12 09:13:43;;;;;;;15.27;7.38;;;;;;;9.50;59.64;94754.22;5090188;28;20446;-34
2022/11/12 09:16:09;;;;;;;6.95;4.40;;;;;;;9.44;60.39;94756.22;5090202;28;20031;-34
2022/11/12 09:18:35;;;;;;;11.65;6.38;;;;;;;9.32;59.30;94752.03;5090186;28;20103;-34
2022/11/12 09:21:06;;;;;;;18.88;10.27;;;;;;;9.10;59.45;94752.16;5090175;28;20111;-34
2022/11/12 09:23:33;;;;;;;6.30;4.20;;;;;;;9.04;60.03;94754.19;5090240;28;20476;-34
2022/11/12 09:25:59;;;;;;;4.40;3.28;;;;;;;9.08;61.26;94754.66;5089723;28;20024;-34
2022/11/12 09:28:25;;;;;;;2.42;2.22;;;;;;;9.00;60.51;94753.69;5089877;28;20032;-34
2022/11/12 09:30:52;;;;;;;5.18;2.33;;;;;;;9.07;61.88;94753.19;5092885;28;20035;-34
2022/11/12 09:33:24;;;;;;;3.25;2.50;;;;;;;9.08;61.38;94736.13;5094551;28;20028;-34
2022/11/12 09:35:50;;;;;;;3.72;2.40;;;;;;;9.08;61.35;94738.88;5094226;28;20027;-34
2022/11/12 09:38:16;;;;;;;2.38;2.10;;;;;;;9.05;62.15;94748.16;5094069;28;20051;-34
2022/11/12 09:40:51;;;;;;;3.28;2.60;;;;;;;8.95;61.20;94746.94;5094348;28;20024;-34
2022/11/12 09:43:34;;;;;;;3.35;2.78;;;;;;;8.99;62.50;94750.19;5075673;28;20526;-34
2022/11/12 09:46:23;;;;;;;2.50;2.28;;;;;;;8.97;63.00;94747.19;5075930;28;20173;-34
2022/11/12 09:48:54;;;;;;;6.37;3.63;;;;;;;8.98;63.18;94747.94;5076243;28;20492;-34
2022/11/12 09:51:22;;;;;;;3.38;2.28;;;;;;;8.76;62.73;94759.03;5076111;28;20405;-34
2022/11/12 09:53:54;;;;;;;2.63;2.40;;;;;;;8.70;62.87;94739.03;5093945;28;20024;-34
2022/11/12 09:56:21;;;;;;;2.85;2.55;;;;;;;8.80;63.98;94749.25;5094034;28;20044;-34
2022/11/12 09:58:47;;;;;;;3.22;2.20;;;;;;;8.88;62.90;94746.75;5094014;28;20543;-34
2022/11/12 10:01:17;;;;;;;2.53;2.22;;;;;;;8.82;63.53;94752.25;5093880;28;20055;-34
2022/11/12 10:04:12;;;;;;;4.70;3.72;;;;;;;8.70;64.61;94748.06;5075804;28;20050;-34
2022/11/12 10:06:53;;;;;;;4.28;3.33;;;;;;;8.64;66.38;94763.81;5048839;28;20036;-34
2022/11/12 10:09:22;;;;;;;2.92;2.63;;;;;;;8.70;65.77;94753.56;5093944;28;20587;-34
2022/11/12 10:18:06;;;;;;;7.25;2.15;;;;;;;8.75;66.72;94746.53;5078124;28;20035;-34
2022/11/12 10:20:40;;;;;;;2.75;1.90;;;;;;;8.95;67.23;94749.72;5075212;28;20020;-34
2022/11/12 10:23:26;;;;;;;5.57;1.98;;;;;;;9.15;66.26;94752.13;5093357;28;20052;-34
2022/11/12 10:25:56;;;;;;;2.72;2.03;;;;;;;9.25;66.42;94744.31;5092714;28;20032;-34
2022/11/12 10:28:34;;;;;;;3.30;2.42;;;;;;;9.42;66.31;94755.25;5093541;28;20036;-34
2022/11/12 10:31:17;;;;;;;2.05;1.80;;;;;;;9.55;65.87;94753.41;5072069;28;20046;-34
2022/11/12 10:33:45;;;;;;;3.03;2.45;;;;;;;9.65;67.74;94745.59;5072826;28;20032;-34
2022/11/12 10:36:17;;;;;;;2.00;1.60;;;;;;;9.71;64.74;94749.81;5071647;28;20117;-34
2022/11/12 10:38:44;;;;;;;3.35;2.03;;;;;;;9.67;64.21;94740.31;5079363;28;20031;-34
2022/11/12 10:41:31;;;;;;;2.70;2.40;;;;;;;9.89;64.80;94746.44;5074128;28;20036;-34
2022/11/12 10:44:05;;;;;;;2.70;2.40;;;;;;;9.84;63.52;94751.97;5092881;28;20048;-34
2022/11/12 10:46:36;;;;;;;3.80;2.30;;;;;;;9.83;63.44;94750.50;5075015;28;20070;-34
2022/11/12 10:49:26;;;;;;;3.30;2.70;;;;;;;10.08;63.98;94754.03;5075135;28;20023;-34
2022/11/12 10:51:56;;;;;;;2.55;1.75;;;;;;;10.22;61.38;94744.69;5092365;28;20040;-35
2022/11/12 10:54:36;;;;;;;2.25;2.03;;;;;;;10.61;62.61;94750.59;5092642;28;20027;-34
2022/11/12 10:57:21;;;;;;;1.42;1.33;;;;;;;10.98;60.82;94736.84;5092658;28;20020;-34
2022/11/12 11:00:14;;;;;;;2.50;1.77;;;;;;;11.49;56.93;94748.78;5092436;28;20085;-34
2022/11/12 11:02:53;;;;;;;2.42;2.22;;;;;;;11.44;57.72;94744.06;5092826;28;20036;-34
2022/11/12 11:05:54;;;;;;;2.95;1.90;;;;;;;11.59;57.81;94738.09;5074469;28;20028;-34
2022/11/12 11:08:38;;;;;;;3.10;2.38;;;;;;;11.39;59.86;94739.38;5085186;28;20044;-34
2022/11/12 11:11:16;;;;;;;5.95;4.32;;;;;;;11.26;59.66;94733.78;5092708;28;20027;-34
2022/11/12 11:13:46;;;;;;;2.88;2.13;;;;;;;11.02;60.14;94728.28;5092363;28;20027;-34
2022/11/12 11:16:23;;;;;;;4.32;2.90;;;;;;;10.88;59.50;94727.44;5092540;28;20474;-34
2022/11/12 11:19:02;;;;;;;3.88;3.17;;;;;;;10.96;61.09;94733.88;5074236;28;20150;-34
2022/11/12 11:21:49;;;;;;;7.20;4.85;;;;;;;10.75;60.50;94737.63;5092464;28;20119;-34
2022/11/12 11:24:43;;;;;;;7.07;4.20;;;;;;;10.61;62.04;94732.00;5092377;28;20122;-34
2022/11/12 11:27:23;;;;;;;4.00;3.00;;;;;;;10.19;59.39;94726.38;5070645;28;20062;-34
2022/11/12 11:29:57;;;;;;;2.53;2.33;;;;;;;9.73;60.72;94735.50;5083981;28;20071;-34
2022/11/12 11:32:48;;;;;;;3.45;3.15;;;;;;;9.32;62.01;94732.75;5091962;28;20028;-34
2022/11/12 11:35:20;;;;;;;5.07;2.28;;;;;;;9.20;63.73;94739.59;5091967;28;20035;-34
2022/11/12 11:38:01;;;;;;;2.67;2.47;;;;;;;9.20;64.05;94728.56;5092118;28;20095;-34
2022/11/12 11:40:37;;;;;;;3.63;2.67;;;;;;;9.05;64.51;94730.91;5091756;28;20104;-34
2022/11/12 11:43:36;;;;;;;4.15;2.72;;;;;;;9.00;65.60;94723.41;5091928;28;20092;-34
2022/11/12 11:46:19;;;;;;;3.55;2.45;;;;;;;9.07;66.61;94722.88;5091650;28;20561;-34
2022/11/12 11:49:12;;;;;;;3.08;2.38;;;;;;;9.20;65.36;94719.53;5091690;28;20060;-34
2022/11/12 11:52:02;;;;;;;3.63;2.38;;;;;;;9.20;65.13;94716.78;5091655;28;20024;-34
2022/11/12 11:54:51;;;;;;;2.72;2.15;;;;;;;8.89;64.66;94721.44;5091200;28;20062;-34
2022/11/12 11:57:42;;;;;;;2.78;1.80;;;;;;;8.74;67.48;94715.50;5073722;28;20028;-34
2022/11/12 12:00:20;;;;;;;3.28;2.10;;;;;;;8.73;67.37;94716.72;5073630;28;20381;-34
2022/11/12 12:02:48;;;;;;;5.13;2.47;;;;;;;8.65;67.46;94720.53;5091295;28;20088;-34
2022/11/12 12:05:29;;;;;;;3.47;2.35;;;;;;;8.61;67.83;94709.03;5091437;28;20470;-34
2022/11/12 12:08:08;;;;;;;2.22;1.77;;;;;;;8.55;67.81;94719.31;5091131;28;20504;-34
2022/11/12 12:10:52;;;;;;;;;;;;;;;8.55;67.98;94711.81;5073721;28;20055;-34
2022/11/12 12:13:24;;;;;;;2.10;1.60;;;;;;;8.55;67.49;94711.81;5091179;28;19907;-34
2022/11/12 12:16:17;;;;;;;4.32;2.67;;;;;;;8.68;68.01;94708.50;5091156;28;20024;-34
2022/11/12 12:19:00;;;;;;;5.93;2.42;;;;;;;8.74;66.81;94706.47;5070932;28;20028;-34
2022/11/12 12:21:30;;;;;;;6.25;4.18;;;;;;;8.57;68.47;94712.06;5070747;28;20488;-34